sensor_id;sensor_type;location;lat;lon;timestamp;P1;durP1;ratioP1;P2;durP2;ratioP2
78740;SDS011;68062;48.726;9.370;2023-06-22T00:02:04;7.83;;;6.87;;
78740;SDS011;68062;48.726;9.370;2023-06-22T00:04:31;10.30;;;7.93;;
78740;SDS011;68062;48.726;9.370;2023-06-22T00:06:59;11.40;;;8.00;;
78740;SDS011;68062;48.726;9.370;2023-06-22T00:09:25;13.30;;;7.97;;
78740;SDS011;68062;48.726;9.370;2023-06-22T00:11:52;8.60;;;7.37;;
78740;SDS011;68062;48.726;9.370;2023-06-22T00:14:19;12.10;;;10.30;;
78740;SDS011;68062;48.726;9.370;2023-06-22T00:16:45;10.30;;;7.73;;
78740;SDS011;68062;48.726;9.370;2023-06-22T00:19:14;7.80;;;7.30;;
78740;SDS011;68062;48.726;9.370;2023-06-22T00:21:40;8.97;;;7.03;;
78740;SDS011;68062;48.726;9.370;2023-06-22T00:24:09;8.33;;;6.90;;
78740;SDS011;68062;48.726;9.370;2023-06-22T00:26:36;9.00;;;7.20;;
78740;SDS011;68062;48.726;9.370;2023-06-22T00:29:03;9.37;;;7.00;;
78740;SDS011;68062;48.726;9.370;2023-06-22T00:31:30;10.07;;;8.37;;
78740;SDS011;68062;48.726;9.370;2023-06-22T00:33:57;9.47;;;8.13;;
78740;SDS011;68062;48.726;9.370;2023-06-22T00:36:25;9.17;;;7.63;;
78740;SDS011;68062;48.726;9.370;2023-06-22T00:38:52;9.80;;;7.63;;
78740;SDS011;68062;48.726;9.370;2023-06-22T00:41:20;9.33;;;7.47;;
78740;SDS011;68062;48.726;9.370;2023-06-22T00:43:46;10.33;;;8.07;;
78740;SDS011;68062;48.726;9.370;2023-06-22T00:46:13;11.60;;;8.10;;
78740;SDS011;68062;48.726;9.370;2023-06-22T00:48:42;10.57;;;7.70;;
78740;SDS011;68062;48.726;9.370;2023-06-22T00:51:09;9.93;;;8.07;;
78740;SDS011;68062;48.726;9.370;2023-06-22T00:53:37;9.20;;;7.57;;
78740;SDS011;68062;48.726;9.370;2023-06-22T00:56:06;10.23;;;7.13;;
78740;SDS011;68062;48.726;9.370;2023-06-22T00:58:36;9.37;;;7.50;;
78740;SDS011;68062;48.726;9.370;2023-06-22T01:01:06;10.03;;;7.40;;
78740;SDS011;68062;48.726;9.370;2023-06-22T01:03:33;9.87;;;8.27;;
78740;SDS011;68062;48.726;9.370;2023-06-22T01:06:05;9.60;;;8.30;;
78740;SDS011;68062;48.726;9.370;2023-06-22T01:08:38;11.97;;;7.70;;
78740;SDS011;68062;48.726;9.370;2023-06-22T01:11:14;10.00;;;9.40;;
78740;SDS011;68062;48.726;9.370;2023-06-22T01:13:48;11.67;;;8.90;;
78740;SDS011;68062;48.726;9.370;2023-06-22T01:16:26;16.70;;;10.90;;
78740;SDS011;68062;48.726;9.370;2023-06-22T01:18:55;12.20;;;9.00;;
78740;SDS011;68062;48.726;9.370;2023-06-22T01:21:28;11.57;;;8.00;;
78740;SDS011;68062;48.726;9.370;2023-06-22T01:24:01;9.80;;;8.17;;
78740;SDS011;68062;48.726;9.370;2023-06-22T01:26:38;10.33;;;8.40;;
78740;SDS011;68062;48.726;9.370;2023-06-22T01:29:13;9.50;;;8.03;;
78740;SDS011;68062;48.726;9.370;2023-06-22T01:31:44;7.87;;;6.87;;
78740;SDS011;68062;48.726;9.370;2023-06-22T01:34:14;10.50;;;8.17;;
78740;SDS011;68062;48.726;9.370;2023-06-22T01:36:42;8.00;;;7.43;;
78740;SDS011;68062;48.726;9.370;2023-06-22T01:39:09;8.97;;;7.00;;
78740;SDS011;68062;48.726;9.370;2023-06-22T01:41:37;10.03;;;8.33;;
78740;SDS011;68062;48.726;9.370;2023-06-22T01:44:06;10.17;;;8.87;;
78740;SDS011;68062;48.726;9.370;2023-06-22T01:46:36;9.53;;;7.20;;
78740;SDS011;68062;48.726;9.370;2023-06-22T01:49:03;7.83;;;6.87;;
78740;SDS011;68062;48.726;9.370;2023-06-22T01:51:31;10.30;;;8.20;;
78740;SDS011;68062;48.726;9.370;2023-06-22T01:53:59;9.40;;;7.93;;
78740;SDS011;68062;48.726;9.370;2023-06-22T01:56:26;8.70;;;7.43;;
78740;SDS011;68062;48.726;9.370;2023-06-22T01:58:55;9.17;;;6.97;;
78740;SDS011;68062;48.726;9.370;2023-06-22T02:01:30;9.30;;;7.50;;
78740;SDS011;68062;48.726;9.370;2023-06-22T02:04:05;10.57;;;10.00;;
78740;SDS011;68062;48.726;9.370;2023-06-22T02:06:36;12.77;;;8.27;;
78740;SDS011;68062;48.726;9.370;2023-06-22T02:09:06;9.20;;;8.10;;
78740;SDS011;68062;48.726;9.370;2023-06-22T02:11:37;10.43;;;8.00;;
78740;SDS011;68062;48.726;9.370;2023-06-22T02:14:06;10.70;;;8.17;;
78740;SDS011;68062;48.726;9.370;2023-06-22T02:16:34;11.70;;;7.97;;
78740;SDS011;68062;48.726;9.370;2023-06-22T02:19:04;10.10;;;8.30;;
78740;SDS011;68062;48.726;9.370;2023-06-22T02:21:33;12.50;;;8.90;;
78740;SDS011;68062;48.726;9.370;2023-06-22T02:23:59;8.60;;;7.10;;
78740;SDS011;68062;48.726;9.370;2023-06-22T02:26:29;16.13;;;8.73;;
78740;SDS011;68062;48.726;9.370;2023-06-22T02:28:57;11.23;;;8.80;;
78740;SDS011;68062;48.726;9.370;2023-06-22T02:31:23;12.43;;;8.67;;
78740;SDS011;68062;48.726;9.370;2023-06-22T02:33:56;11.30;;;8.60;;
78740;SDS011;68062;48.726;9.370;2023-06-22T02:36:25;10.60;;;8.67;;
78740;SDS011;68062;48.726;9.370;2023-06-22T02:38:55;10.60;;;7.03;;
78740;SDS011;68062;48.726;9.370;2023-06-22T02:41:24;9.30;;;7.83;;
78740;SDS011;68062;48.726;9.370;2023-06-22T02:43:50;11.43;;;8.00;;
78740;SDS011;68062;48.726;9.370;2023-06-22T02:46:18;9.47;;;8.07;;
78740;SDS011;68062;48.726;9.370;2023-06-22T02:48:45;12.10;;;9.20;;
78740;SDS011;68062;48.726;9.370;2023-06-22T02:51:12;10.83;;;8.47;;
78740;SDS011;68062;48.726;9.370;2023-06-22T02:53:41;9.73;;;7.60;;
78740;SDS011;68062;48.726;9.370;2023-06-22T02:56:11;11.60;;;8.20;;
78740;SDS011;68062;48.726;9.370;2023-06-22T02:58:38;10.97;;;8.37;;
78740;SDS011;68062;48.726;9.370;2023-06-22T03:01:08;12.37;;;8.53;;
78740;SDS011;68062;48.726;9.370;2023-06-22T03:03:36;11.70;;;9.10;;
78740;SDS011;68062;48.726;9.370;2023-06-22T03:06:03;10.97;;;8.60;;
78740;SDS011;68062;48.726;9.370;2023-06-22T03:08:29;10.93;;;9.77;;
78740;SDS011;68062;48.726;9.370;2023-06-22T03:10:57;9.03;;;8.33;;
78740;SDS011;68062;48.726;9.370;2023-06-22T03:13:24;11.50;;;8.00;;
78740;SDS011;68062;48.726;9.370;2023-06-22T03:15:51;12.60;;;8.43;;
78740;SDS011;68062;48.726;9.370;2023-06-22T03:18:17;12.10;;;9.27;;
78740;SDS011;68062;48.726;9.370;2023-06-22T03:20:44;12.33;;;8.80;;
78740;SDS011;68062;48.726;9.370;2023-06-22T03:23:10;13.97;;;10.17;;
78740;SDS011;68062;48.726;9.370;2023-06-22T03:25:37;15.47;;;10.13;;
78740;SDS011;68062;48.726;9.370;2023-06-22T03:28:06;11.60;;;9.63;;
78740;SDS011;68062;48.726;9.370;2023-06-22T03:30:33;9.90;;;8.07;;
78740;SDS011;68062;48.726;9.370;2023-06-22T03:33:00;11.80;;;8.50;;
78740;SDS011;68062;48.726;9.370;2023-06-22T03:35:26;11.37;;;9.00;;
78740;SDS011;68062;48.726;9.370;2023-06-22T03:37:54;12.07;;;8.70;;
78740;SDS011;68062;48.726;9.370;2023-06-22T03:40:21;12.17;;;8.83;;
78740;SDS011;68062;48.726;9.370;2023-06-22T03:42:48;9.43;;;8.73;;
78740;SDS011;68062;48.726;9.370;2023-06-22T03:45:15;11.37;;;10.10;;
78740;SDS011;68062;48.726;9.370;2023-06-22T03:47:42;11.47;;;9.30;;
78740;SDS011;68062;48.726;9.370;2023-06-22T03:50:09;12.03;;;9.40;;
78740;SDS011;68062;48.726;9.370;2023-06-22T03:52:36;14.20;;;8.60;;
78740;SDS011;68062;48.726;9.370;2023-06-22T03:55:03;10.87;;;8.97;;
78740;SDS011;68062;48.726;9.370;2023-06-22T03:57:30;9.50;;;9.07;;
78740;SDS011;68062;48.726;9.370;2023-06-22T03:59:57;11.70;;;8.83;;
78740;SDS011;68062;48.726;9.370;2023-06-22T04:02:25;10.17;;;8.47;;
78740;SDS011;68062;48.726;9.370;2023-06-22T04:04:52;10.30;;;8.63;;
78740;SDS011;68062;48.726;9.370;2023-06-22T04:07:19;13.00;;;9.83;;
78740;SDS011;68062;48.726;9.370;2023-06-22T04:09:46;12.90;;;10.57;;
78740;SDS011;68062;48.726;9.370;2023-06-22T04:12:13;13.90;;;9.30;;
78740;SDS011;68062;48.726;9.370;2023-06-22T04:14:40;10.90;;;9.10;;
78740;SDS011;68062;48.726;9.370;2023-06-22T04:17:06;10.27;;;8.90;;
78740;SDS011;68062;48.726;9.370;2023-06-22T04:19:35;11.43;;;8.70;;
78740;SDS011;68062;48.726;9.370;2023-06-22T04:22:01;14.27;;;8.90;;
78740;SDS011;68062;48.726;9.370;2023-06-22T04:24:28;9.63;;;7.67;;
78740;SDS011;68062;48.726;9.370;2023-06-22T04:26:55;13.50;;;9.17;;
78740;SDS011;68062;48.726;9.370;2023-06-22T04:29:22;11.03;;;8.30;;
78740;SDS011;68062;48.726;9.370;2023-06-22T04:31:55;12.30;;;9.20;;
78740;SDS011;68062;48.726;9.370;2023-06-22T04:34:23;10.40;;;8.17;;
78740;SDS011;68062;48.726;9.370;2023-06-22T04:36:54;9.97;;;8.43;;
78740;SDS011;68062;48.726;9.370;2023-06-22T04:39:20;12.27;;;8.80;;
78740;SDS011;68062;48.726;9.370;2023-06-22T04:41:47;9.83;;;8.30;;
78740;SDS011;68062;48.726;9.370;2023-06-22T04:44:15;14.60;;;9.23;;
78740;SDS011;68062;48.726;9.370;2023-06-22T04:46:49;14.80;;;9.80;;
78740;SDS011;68062;48.726;9.370;2023-06-22T04:49:19;12.13;;;8.30;;
78740;SDS011;68062;48.726;9.370;2023-06-22T04:51:46;12.20;;;8.93;;
78740;SDS011;68062;48.726;9.370;2023-06-22T04:54:14;10.70;;;8.40;;
78740;SDS011;68062;48.726;9.370;2023-06-22T04:56:41;11.03;;;8.50;;
78740;SDS011;68062;48.726;9.370;2023-06-22T04:59:08;13.13;;;8.27;;
78740;SDS011;68062;48.726;9.370;2023-06-22T05:01:38;13.80;;;10.20;;
78740;SDS011;68062;48.726;9.370;2023-06-22T05:04:05;14.00;;;8.20;;
78740;SDS011;68062;48.726;9.370;2023-06-22T05:06:31;10.60;;;7.93;;
78740;SDS011;68062;48.726;9.370;2023-06-22T05:08:58;11.40;;;8.67;;
78740;SDS011;68062;48.726;9.370;2023-06-22T05:11:26;8.97;;;7.63;;
78740;SDS011;68062;48.726;9.370;2023-06-22T05:13:54;9.57;;;6.80;;
78740;SDS011;68062;48.726;9.370;2023-06-22T05:16:22;10.93;;;8.67;;
78740;SDS011;68062;48.726;9.370;2023-06-22T05:18:51;7.47;;;7.03;;
78740;SDS011;68062;48.726;9.370;2023-06-22T05:21:21;12.13;;;6.73;;
78740;SDS011;68062;48.726;9.370;2023-06-22T05:23:49;8.37;;;6.37;;
78740;SDS011;68062;48.726;9.370;2023-06-22T05:26:16;9.20;;;6.70;;
78740;SDS011;68062;48.726;9.370;2023-06-22T05:28:44;13.53;;;6.67;;
78740;SDS011;68062;48.726;9.370;2023-06-22T05:31:12;9.67;;;6.60;;
78740;SDS011;68062;48.726;9.370;2023-06-22T05:33:39;7.70;;;6.63;;
78740;SDS011;68062;48.726;9.370;2023-06-22T05:36:06;7.33;;;6.47;;
78740;SDS011;68062;48.726;9.370;2023-06-22T05:38:33;7.47;;;5.70;;
78740;SDS011;68062;48.726;9.370;2023-06-22T05:41:00;6.73;;;6.37;;
78740;SDS011;68062;48.726;9.370;2023-06-22T05:43:26;6.80;;;5.60;;
78740;SDS011;68062;48.726;9.370;2023-06-22T05:45:54;7.30;;;6.40;;
78740;SDS011;68062;48.726;9.370;2023-06-22T05:48:21;8.70;;;5.60;;
78740;SDS011;68062;48.726;9.370;2023-06-22T05:50:48;7.83;;;5.40;;
78740;SDS011;68062;48.726;9.370;2023-06-22T05:53:14;8.57;;;6.50;;
78740;SDS011;68062;48.726;9.370;2023-06-22T05:55:41;7.93;;;5.83;;
78740;SDS011;68062;48.726;9.370;2023-06-22T05:58:08;7.10;;;5.63;;
78740;SDS011;68062;48.726;9.370;2023-06-22T06:00:35;9.07;;;6.23;;
78740;SDS011;68062;48.726;9.370;2023-06-22T06:03:03;8.63;;;6.83;;
78740;SDS011;68062;48.726;9.370;2023-06-22T06:05:30;8.33;;;5.60;;
78740;SDS011;68062;48.726;9.370;2023-06-22T06:07:57;8.67;;;6.40;;
78740;SDS011;68062;48.726;9.370;2023-06-22T06:10:24;6.40;;;4.80;;
78740;SDS011;68062;48.726;9.370;2023-06-22T06:12:51;8.43;;;5.63;;
78740;SDS011;68062;48.726;9.370;2023-06-22T06:15:18;10.00;;;5.50;;
78740;SDS011;68062;48.726;9.370;2023-06-22T06:17:46;7.77;;;6.40;;
78740;SDS011;68062;48.726;9.370;2023-06-22T06:20:14;8.83;;;5.83;;
78740;SDS011;68062;48.726;9.370;2023-06-22T06:22:41;5.50;;;4.73;;
78740;SDS011;68062;48.726;9.370;2023-06-22T06:25:09;6.47;;;4.77;;
78740;SDS011;68062;48.726;9.370;2023-06-22T06:27:41;6.43;;;5.97;;
78740;SDS011;68062;48.726;9.370;2023-06-22T06:30:09;6.90;;;4.63;;
78740;SDS011;68062;48.726;9.370;2023-06-22T06:32:37;6.73;;;4.40;;
78740;SDS011;68062;48.726;9.370;2023-06-22T06:35:05;8.03;;;5.53;;
78740;SDS011;68062;48.726;9.370;2023-06-22T06:37:34;8.00;;;5.43;;
78740;SDS011;68062;48.726;9.370;2023-06-22T06:40:03;5.40;;;4.90;;
78740;SDS011;68062;48.726;9.370;2023-06-22T06:42:32;6.20;;;4.70;;
78740;SDS011;68062;48.726;9.370;2023-06-22T06:44:59;6.63;;;4.50;;
78740;SDS011;68062;48.726;9.370;2023-06-22T06:47:25;6.00;;;4.97;;
78740;SDS011;68062;48.726;9.370;2023-06-22T06:49:52;7.83;;;4.67;;
78740;SDS011;68062;48.726;9.370;2023-06-22T06:52:18;8.60;;;5.20;;
78740;SDS011;68062;48.726;9.370;2023-06-22T06:54:47;7.07;;;4.73;;
78740;SDS011;68062;48.726;9.370;2023-06-22T06:57:14;4.97;;;3.90;;
78740;SDS011;68062;48.726;9.370;2023-06-22T06:59:41;7.27;;;4.67;;
78740;SDS011;68062;48.726;9.370;2023-06-22T07:02:07;7.87;;;4.00;;
78740;SDS011;68062;48.726;9.370;2023-06-22T07:04:34;6.37;;;4.20;;
78740;SDS011;68062;48.726;9.370;2023-06-22T07:07:01;8.20;;;5.20;;
78740;SDS011;68062;48.726;9.370;2023-06-22T07:09:29;6.67;;;4.17;;
78740;SDS011;68062;48.726;9.370;2023-06-22T07:11:57;8.10;;;4.33;;
78740;SDS011;68062;48.726;9.370;2023-06-22T07:14:23;5.20;;;4.13;;
78740;SDS011;68062;48.726;9.370;2023-06-22T07:16:50;7.97;;;5.50;;
78740;SDS011;68062;48.726;9.370;2023-06-22T07:19:23;5.63;;;4.30;;
78740;SDS011;68062;48.726;9.370;2023-06-22T07:21:51;7.23;;;3.90;;
78740;SDS011;68062;48.726;9.370;2023-06-22T07:24:18;4.73;;;4.53;;
78740;SDS011;68062;48.726;9.370;2023-06-22T07:26:45;5.60;;;4.10;;
78740;SDS011;68062;48.726;9.370;2023-06-22T07:29:14;5.57;;;3.70;;
78740;SDS011;68062;48.726;9.370;2023-06-22T07:31:41;7.90;;;4.30;;
78740;SDS011;68062;48.726;9.370;2023-06-22T07:34:08;4.73;;;3.90;;
78740;SDS011;68062;48.726;9.370;2023-06-22T07:36:34;7.23;;;5.50;;
78740;SDS011;68062;48.726;9.370;2023-06-22T07:39:01;4.80;;;3.90;;
78740;SDS011;68062;48.726;9.370;2023-06-22T07:41:29;7.60;;;4.10;;
78740;SDS011;68062;48.726;9.370;2023-06-22T07:43:56;4.77;;;4.30;;
78740;SDS011;68062;48.726;9.370;2023-06-22T07:46:24;10.67;;;5.50;;
78740;SDS011;68062;48.726;9.370;2023-06-22T07:48:51;6.67;;;3.73;;
78740;SDS011;68062;48.726;9.370;2023-06-22T07:51:17;6.20;;;4.23;;
78740;SDS011;68062;48.726;9.370;2023-06-22T07:53:44;6.27;;;4.57;;
78740;SDS011;68062;48.726;9.370;2023-06-22T07:56:11;7.00;;;4.10;;
78740;SDS011;68062;48.726;9.370;2023-06-22T07:58:38;5.13;;;4.50;;
78740;SDS011;68062;48.726;9.370;2023-06-22T08:01:05;9.77;;;4.57;;
78740;SDS011;68062;48.726;9.370;2023-06-22T08:03:33;5.73;;;3.90;;
78740;SDS011;68062;48.726;9.370;2023-06-22T08:06:00;8.80;;;5.03;;
78740;SDS011;68062;48.726;9.370;2023-06-22T08:08:26;6.80;;;4.67;;
78740;SDS011;68062;48.726;9.370;2023-06-22T08:10:53;10.10;;;5.40;;
78740;SDS011;68062;48.726;9.370;2023-06-22T08:13:20;6.23;;;4.63;;
78740;SDS011;68062;48.726;9.370;2023-06-22T08:15:47;10.90;;;5.13;;
78740;SDS011;68062;48.726;9.370;2023-06-22T08:18:14;7.70;;;4.63;;
78740;SDS011;68062;48.726;9.370;2023-06-22T08:20:43;7.77;;;4.83;;
78740;SDS011;68062;48.726;9.370;2023-06-22T08:23:09;9.80;;;5.63;;
78740;SDS011;68062;48.726;9.370;2023-06-22T08:25:36;13.60;;;6.17;;
78740;SDS011;68062;48.726;9.370;2023-06-22T08:28:03;8.70;;;4.50;;
78740;SDS011;68062;48.726;9.370;2023-06-22T08:30:31;8.60;;;4.80;;
78740;SDS011;68062;48.726;9.370;2023-06-22T08:32:57;7.40;;;4.87;;
78740;SDS011;68062;48.726;9.370;2023-06-22T08:35:24;6.37;;;4.30;;
78740;SDS011;68062;48.726;9.370;2023-06-22T08:37:52;9.30;;;5.17;;
78740;SDS011;68062;48.726;9.370;2023-06-22T08:40:20;9.00;;;6.13;;
78740;SDS011;68062;48.726;9.370;2023-06-22T08:42:48;10.30;;;4.50;;
78740;SDS011;68062;48.726;9.370;2023-06-22T08:45:15;6.30;;;4.93;;
78740;SDS011;68062;48.726;9.370;2023-06-22T08:47:42;6.27;;;4.53;;
78740;SDS011;68062;48.726;9.370;2023-06-22T08:50:10;8.80;;;5.07;;
78740;SDS011;68062;48.726;9.370;2023-06-22T08:52:39;8.47;;;4.60;;
78740;SDS011;68062;48.726;9.370;2023-06-22T08:55:09;7.17;;;5.50;;
78740;SDS011;68062;48.726;9.370;2023-06-22T08:57:36;6.00;;;4.30;;
78740;SDS011;68062;48.726;9.370;2023-06-22T09:00:04;9.17;;;5.33;;
78740;SDS011;68062;48.726;9.370;2023-06-22T09:02:40;5.83;;;4.90;;
78740;SDS011;68062;48.726;9.370;2023-06-22T09:05:08;10.90;;;5.10;;
78740;SDS011;68062;48.726;9.370;2023-06-22T09:07:35;6.47;;;4.67;;
78740;SDS011;68062;48.726;9.370;2023-06-22T09:10:02;11.37;;;5.90;;
78740;SDS011;68062;48.726;9.370;2023-06-22T09:12:32;8.00;;;5.27;;
78740;SDS011;68062;48.726;9.370;2023-06-22T09:14:59;6.77;;;5.83;;
78740;SDS011;68062;48.726;9.370;2023-06-22T09:17:27;7.03;;;5.60;;
78740;SDS011;68062;48.726;9.370;2023-06-22T09:19:54;10.27;;;6.63;;
78740;SDS011;68062;48.726;9.370;2023-06-22T09:22:21;11.67;;;5.77;;
78740;SDS011;68062;48.726;9.370;2023-06-22T09:24:48;8.53;;;5.77;;
78740;SDS011;68062;48.726;9.370;2023-06-22T09:27:15;6.33;;;5.67;;
78740;SDS011;68062;48.726;9.370;2023-06-22T09:29:43;8.60;;;5.83;;
78740;SDS011;68062;48.726;9.370;2023-06-22T09:32:10;8.73;;;5.53;;
78740;SDS011;68062;48.726;9.370;2023-06-22T09:34:37;7.70;;;5.10;;
78740;SDS011;68062;48.726;9.370;2023-06-22T09:37:04;9.13;;;5.07;;
78740;SDS011;68062;48.726;9.370;2023-06-22T09:39:31;7.40;;;5.30;;
78740;SDS011;68062;48.726;9.370;2023-06-22T09:41:59;10.80;;;5.00;;
78740;SDS011;68062;48.726;9.370;2023-06-22T09:44:26;9.67;;;6.33;;
78740;SDS011;68062;48.726;9.370;2023-06-22T09:46:54;11.40;;;6.80;;
78740;SDS011;68062;48.726;9.370;2023-06-22T09:49:21;8.70;;;5.90;;
78740;SDS011;68062;48.726;9.370;2023-06-22T09:51:48;9.80;;;6.10;;
78740;SDS011;68062;48.726;9.370;2023-06-22T09:54:14;10.47;;;5.90;;
78740;SDS011;68062;48.726;9.370;2023-06-22T09:56:41;10.70;;;5.90;;
78740;SDS011;68062;48.726;9.370;2023-06-22T09:59:08;9.27;;;5.40;;
78740;SDS011;68062;48.726;9.370;2023-06-22T10:01:35;7.80;;;5.40;;
78740;SDS011;68062;48.726;9.370;2023-06-22T10:04:03;8.40;;;5.47;;
78740;SDS011;68062;48.726;9.370;2023-06-22T10:06:30;13.97;;;7.10;;
78740;SDS011;68062;48.726;9.370;2023-06-22T10:08:57;7.87;;;6.00;;
78740;SDS011;68062;48.726;9.370;2023-06-22T10:11:23;11.27;;;7.00;;
78740;SDS011;68062;48.726;9.370;2023-06-22T10:13:54;8.27;;;6.27;;
78740;SDS011;68062;48.726;9.370;2023-06-22T10:16:21;8.70;;;6.00;;
78740;SDS011;68062;48.726;9.370;2023-06-22T10:18:52;9.80;;;6.20;;
78740;SDS011;68062;48.726;9.370;2023-06-22T10:21:20;6.37;;;5.60;;
78740;SDS011;68062;48.726;9.370;2023-06-22T10:23:47;7.10;;;6.00;;
78740;SDS011;68062;48.726;9.370;2023-06-22T10:26:14;9.43;;;6.53;;
78740;SDS011;68062;48.726;9.370;2023-06-22T10:28:40;9.27;;;5.87;;
78740;SDS011;68062;48.726;9.370;2023-06-22T10:31:07;6.73;;;5.80;;
78740;SDS011;68062;48.726;9.370;2023-06-22T10:33:34;10.50;;;7.37;;
78740;SDS011;68062;48.726;9.370;2023-06-22T10:36:01;10.57;;;7.03;;
78740;SDS011;68062;48.726;9.370;2023-06-22T10:38:28;8.10;;;5.70;;
78740;SDS011;68062;48.726;9.370;2023-06-22T10:40:55;9.10;;;6.30;;
78740;SDS011;68062;48.726;9.370;2023-06-22T10:43:22;6.47;;;5.83;;
78740;SDS011;68062;48.726;9.370;2023-06-22T10:45:49;14.37;;;7.43;;
78740;SDS011;68062;48.726;9.370;2023-06-22T10:48:16;10.50;;;5.83;;
78740;SDS011;68062;48.726;9.370;2023-06-22T10:50:43;13.07;;;5.87;;
78740;SDS011;68062;48.726;9.370;2023-06-22T10:53:10;11.60;;;7.63;;
78740;SDS011;68062;48.726;9.370;2023-06-22T10:55:38;11.53;;;6.57;;
78740;SDS011;68062;48.726;9.370;2023-06-22T10:58:04;8.67;;;5.93;;
78740;SDS011;68062;48.726;9.370;2023-06-22T11:00:31;12.03;;;6.07;;
78740;SDS011;68062;48.726;9.370;2023-06-22T11:02:57;10.30;;;5.80;;
78740;SDS011;68062;48.726;9.370;2023-06-22T11:05:24;11.70;;;6.93;;
78740;SDS011;68062;48.726;9.370;2023-06-22T11:07:51;10.50;;;6.97;;
78740;SDS011;68062;48.726;9.370;2023-06-22T11:10:18;6.43;;;5.93;;
78740;SDS011;68062;48.726;9.370;2023-06-22T11:12:47;10.10;;;6.50;;
78740;SDS011;68062;48.726;9.370;2023-06-22T11:15:13;10.80;;;6.73;;
78740;SDS011;68062;48.726;9.370;2023-06-22T11:17:40;6.40;;;6.00;;
78740;SDS011;68062;48.726;9.370;2023-06-22T11:20:07;7.63;;;6.07;;
78740;SDS011;68062;48.726;9.370;2023-06-22T11:22:36;11.47;;;7.03;;
78740;SDS011;68062;48.726;9.370;2023-06-22T11:25:05;10.93;;;7.27;;
78740;SDS011;68062;48.726;9.370;2023-06-22T11:27:32;11.30;;;7.60;;
78740;SDS011;68062;48.726;9.370;2023-06-22T11:30:00;12.90;;;6.53;;
78740;SDS011;68062;48.726;9.370;2023-06-22T11:32:28;10.50;;;6.80;;
78740;SDS011;68062;48.726;9.370;2023-06-22T11:34:54;7.50;;;5.40;;
78740;SDS011;68062;48.726;9.370;2023-06-22T11:37:21;12.40;;;7.23;;
78740;SDS011;68062;48.726;9.370;2023-06-22T11:39:48;7.43;;;5.80;;
78740;SDS011;68062;48.726;9.370;2023-06-22T11:42:14;13.13;;;7.30;;
78740;SDS011;68062;48.726;9.370;2023-06-22T11:44:43;7.00;;;5.83;;
78740;SDS011;68062;48.726;9.370;2023-06-22T11:47:11;15.23;;;8.20;;
78740;SDS011;68062;48.726;9.370;2023-06-22T11:49:38;11.07;;;5.90;;
78740;SDS011;68062;48.726;9.370;2023-06-22T11:52:05;9.67;;;6.70;;
78740;SDS011;68062;48.726;9.370;2023-06-22T11:54:32;8.90;;;6.13;;
78740;SDS011;68062;48.726;9.370;2023-06-22T11:56:59;8.00;;;6.00;;
78740;SDS011;68062;48.726;9.370;2023-06-22T11:59:26;10.53;;;6.27;;
78740;SDS011;68062;48.726;9.370;2023-06-22T12:01:53;8.40;;;6.63;;
78740;SDS011;68062;48.726;9.370;2023-06-22T12:04:23;10.90;;;6.70;;
78740;SDS011;68062;48.726;9.370;2023-06-22T12:06:50;11.37;;;6.47;;
78740;SDS011;68062;48.726;9.370;2023-06-22T12:09:16;7.53;;;5.50;;
78740;SDS011;68062;48.726;9.370;2023-06-22T12:11:43;10.67;;;6.50;;
78740;SDS011;68062;48.726;9.370;2023-06-22T12:14:10;13.80;;;6.33;;
78740;SDS011;68062;48.726;9.370;2023-06-22T12:16:37;9.40;;;5.67;;
78740;SDS011;68062;48.726;9.370;2023-06-22T12:19:04;9.37;;;6.50;;
78740;SDS011;68062;48.726;9.370;2023-06-22T12:21:32;8.60;;;6.37;;
78740;SDS011;68062;48.726;9.370;2023-06-22T12:23:59;12.03;;;6.10;;
78740;SDS011;68062;48.726;9.370;2023-06-22T12:26:25;9.13;;;6.30;;
78740;SDS011;68062;48.726;9.370;2023-06-22T12:28:52;9.47;;;7.70;;
78740;SDS011;68062;48.726;9.370;2023-06-22T12:31:19;9.13;;;6.20;;
78740;SDS011;68062;48.726;9.370;2023-06-22T12:33:45;9.93;;;7.20;;
78740;SDS011;68062;48.726;9.370;2023-06-22T12:36:12;9.93;;;6.10;;
78740;SDS011;68062;48.726;9.370;2023-06-22T12:38:41;8.90;;;6.33;;
78740;SDS011;68062;48.726;9.370;2023-06-22T12:41:07;17.30;;;6.87;;
78740;SDS011;68062;48.726;9.370;2023-06-22T12:43:34;13.03;;;6.13;;
78740;SDS011;68062;48.726;9.370;2023-06-22T12:46:01;10.80;;;6.27;;
78740;SDS011;68062;48.726;9.370;2023-06-22T12:48:28;7.60;;;5.83;;
78740;SDS011;68062;48.726;9.370;2023-06-22T12:50:54;11.77;;;5.90;;
78740;SDS011;68062;48.726;9.370;2023-06-22T12:53:21;13.53;;;6.70;;
78740;SDS011;68062;48.726;9.370;2023-06-22T12:55:50;11.43;;;5.97;;
78740;SDS011;68062;48.726;9.370;2023-06-22T12:58:16;10.17;;;6.53;;
78740;SDS011;68062;48.726;9.370;2023-06-22T13:00:43;11.43;;;6.40;;
78740;SDS011;68062;48.726;9.370;2023-06-22T13:03:10;15.63;;;7.43;;
78740;SDS011;68062;48.726;9.370;2023-06-22T13:05:37;12.37;;;7.33;;
78740;SDS011;68062;48.726;9.370;2023-06-22T13:08:04;7.97;;;6.23;;
78740;SDS011;68062;48.726;9.370;2023-06-22T13:10:31;12.63;;;7.00;;
78740;SDS011;68062;48.726;9.370;2023-06-22T13:12:59;14.40;;;6.70;;
78740;SDS011;68062;48.726;9.370;2023-06-22T13:15:26;10.20;;;6.70;;
78740;SDS011;68062;48.726;9.370;2023-06-22T13:17:53;9.97;;;6.60;;
78740;SDS011;68062;48.726;9.370;2023-06-22T13:20:20;10.37;;;5.93;;
78740;SDS011;68062;48.726;9.370;2023-06-22T13:22:47;12.10;;;8.00;;
78740;SDS011;68062;48.726;9.370;2023-06-22T13:25:13;11.73;;;5.70;;
78740;SDS011;68062;48.726;9.370;2023-06-22T13:27:44;12.43;;;5.30;;
78740;SDS011;68062;48.726;9.370;2023-06-22T13:30:12;10.20;;;5.47;;
78740;SDS011;68062;48.726;9.370;2023-06-22T13:32:39;9.47;;;6.13;;
78740;SDS011;68062;48.726;9.370;2023-06-22T13:35:07;9.93;;;6.30;;
78740;SDS011;68062;48.726;9.370;2023-06-22T13:37:34;9.93;;;5.90;;
78740;SDS011;68062;48.726;9.370;2023-06-22T13:40:01;13.90;;;7.80;;
78740;SDS011;68062;48.726;9.370;2023-06-22T13:42:32;12.10;;;6.50;;
78740;SDS011;68062;48.726;9.370;2023-06-22T13:44:59;13.13;;;6.63;;
78740;SDS011;68062;48.726;9.370;2023-06-22T13:47:27;9.40;;;6.07;;
78740;SDS011;68062;48.726;9.370;2023-06-22T13:49:53;10.30;;;5.90;;
78740;SDS011;68062;48.726;9.370;2023-06-22T13:52:20;10.60;;;5.77;;
78740;SDS011;68062;48.726;9.370;2023-06-22T13:54:47;10.10;;;5.50;;
78740;SDS011;68062;48.726;9.370;2023-06-22T13:57:13;7.73;;;5.80;;
78740;SDS011;68062;48.726;9.370;2023-06-22T13:59:40;8.97;;;6.17;;
78740;SDS011;68062;48.726;9.370;2023-06-22T14:02:07;7.10;;;5.63;;
78740;SDS011;68062;48.726;9.370;2023-06-22T14:04:35;8.43;;;5.93;;
78740;SDS011;68062;48.726;9.370;2023-06-22T14:07:01;12.90;;;8.07;;
78740;SDS011;68062;48.726;9.370;2023-06-22T14:09:28;5.83;;;5.20;;
78740;SDS011;68062;48.726;9.370;2023-06-22T14:11:55;10.57;;;6.50;;
78740;SDS011;68062;48.726;9.370;2023-06-22T14:14:22;10.50;;;5.50;;
78740;SDS011;68062;48.726;9.370;2023-06-22T14:16:48;10.67;;;5.73;;
78740;SDS011;68062;48.726;9.370;2023-06-22T14:19:16;12.80;;;5.33;;
78740;SDS011;68062;48.726;9.370;2023-06-22T14:21:44;9.70;;;6.10;;
78740;SDS011;68062;48.726;9.370;2023-06-22T14:24:11;15.07;;;6.63;;
78740;SDS011;68062;48.726;9.370;2023-06-22T14:26:38;9.77;;;5.70;;
78740;SDS011;68062;48.726;9.370;2023-06-22T14:29:05;10.67;;;5.40;;
78740;SDS011;68062;48.726;9.370;2023-06-22T14:31:32;10.20;;;5.47;;
78740;SDS011;68062;48.726;9.370;2023-06-22T14:33:59;8.27;;;5.53;;
78740;SDS011;68062;48.726;9.370;2023-06-22T14:36:26;12.70;;;5.57;;
78740;SDS011;68062;48.726;9.370;2023-06-22T14:38:54;13.70;;;6.63;;
78740;SDS011;68062;48.726;9.370;2023-06-22T14:41:21;9.87;;;5.87;;
78740;SDS011;68062;48.726;9.370;2023-06-22T14:43:50;8.40;;;5.40;;